Главная страница
METAR-TAF:

METAR-TAF

Аэропорты :

Харбин, Китай

Тайпин

широта: 45-45N, долгота: 126-46E, высота над уровнем моря: 143 м

Текущие метеонаблюдения

Эта сводка был подготовлена 59 минут назад, в 05:00 UTC
Ветер 6 Узел от западно-северо-западный, изменяющийся между западный-юго-западный и северо-западный
Температура -26°C
Влажность 62%
Давление 1029 hPa
Видимость: 4000 м
дым

METAR: ZYHB 240500Z 29003MPS 240V320 4000 FU NSC M26/M31 Q1029 NOSIG

Время: 13:59 (05:59 UTC)

Прогноз

Эта сводка был подготовлена 2 часа и 58 минут назад, в 03:01 UTC
Прогноз действительный с 24-го 06 UTC до 25-го 06 UTC
Ветер 8 Узел от западно-северо-западный
Видимость: 6000 м
Отдельные облака на высоте 3000 фута

TAF: ZYHB 240301Z 2406/2506 29004MPS 6000 SCT030 TXM22/06Z TNM36/22Z

Метеонаблюдения и прогнозы для более 4000 аэропортов (сводки METAR и TAF).

Имеющиеся станции представлены на карте желтыми и красными точками.

Чтобы увидеть название станции, наведите на нее мышь.

Затем щелкните, чтобы увидеть метеонаблюдения и метеопрогнозы.

Управление картой: чтобы увеличить масштаб, щелкните зеленые кнопки с черным крестиком; чтобы уменьшить масштаб, щелкните зеленую кнопку с тире; для просмотра соседних карт щелкайте зеленые стрелки.


METAR-TAF: